createdAt,value
2022-11-16T00:00:17.499Z,49.5
2022-11-16T00:05:23.665Z,49.5
2022-11-16T00:10:29.797Z,49.5
2022-11-16T00:15:35.944Z,49.5
2022-11-16T00:20:42.099Z,49.5
2022-11-16T00:25:48.249Z,49.5
2022-11-16T00:30:54.517Z,49.5
2022-11-16T00:36:00.795Z,49.5
2022-11-16T00:41:07.051Z,49.5
2022-11-16T00:46:13.313Z,49.5
2022-11-16T00:51:19.575Z,49.5
2022-11-16T00:56:25.838Z,49.5
2022-11-16T01:01:32.102Z,49.5
2022-11-16T01:06:38.372Z,49.5
2022-11-16T01:11:44.648Z,49.5
2022-11-16T01:16:50.910Z,49.5
2022-11-16T01:21:57.175Z,49.5
2022-11-16T01:27:03.443Z,49.5
2022-11-16T01:37:16.184Z,49.5
2022-11-16T01:42:22.650Z,49.5
2022-11-16T01:47:29.122Z,49.5
2022-11-16T01:52:34.530Z,49.5
2022-11-16T01:57:40.616Z,49.5
2022-11-16T02:02:46.700Z,49.5
2022-11-16T02:07:52.797Z,49.5
2022-11-16T02:12:58.887Z,49.5
2022-11-16T02:18:04.974Z,49.5
2022-11-16T02:23:11.072Z,49.5
2022-11-16T02:28:17.157Z,49.5
2022-11-16T02:33:23.251Z,49.5
2022-11-16T02:38:29.332Z,49.5
2022-11-16T02:43:35.425Z,49.5
2022-11-16T02:48:41.515Z,49.5
2022-11-16T02:53:47.618Z,49.5
2022-11-16T02:58:53.696Z,49.5
2022-11-16T03:03:59.788Z,49.5
2022-11-16T03:09:04.901Z,49.5
2022-11-16T03:14:11.001Z,49.5
2022-11-16T03:19:17.076Z,49.5
2022-11-16T03:24:23.163Z,49
2022-11-16T03:29:29.279Z,49
2022-11-16T03:34:35.351Z,49
2022-11-16T03:39:41.466Z,49
2022-11-16T03:44:47.534Z,49
2022-11-16T03:49:53.620Z,49
2022-11-16T03:54:59.718Z,49
2022-11-16T04:00:05.810Z,49
2022-11-16T04:05:11.903Z,49
2022-11-16T04:10:17.994Z,49
2022-11-16T04:15:24.081Z,49
2022-11-16T04:20:30.164Z,49
2022-11-16T04:25:36.266Z,49
2022-11-16T04:30:42.351Z,49
2022-11-16T04:35:48.440Z,49
2022-11-16T04:40:54.533Z,49
2022-11-16T04:51:06.708Z,49
2022-11-16T04:56:12.803Z,49
2022-11-16T05:01:18.888Z,49
2022-11-16T05:06:24.984Z,49
2022-11-16T05:11:31.076Z,49
2022-11-16T05:16:37.169Z,49
2022-11-16T05:21:43.258Z,49
2022-11-16T05:26:49.349Z,49
2022-11-16T05:31:55.439Z,49
2022-11-16T05:37:01.537Z,49
2022-11-16T05:42:07.630Z,49
2022-11-16T05:47:13.717Z,49
2022-11-16T05:52:19.802Z,49.5
2022-11-16T05:57:25.895Z,50.5
2022-11-16T06:02:31.983Z,51
2022-11-16T06:12:43.200Z,52
2022-11-16T06:22:55.369Z,51.5
2022-11-16T06:28:01.462Z,51
2022-11-16T06:33:07.558Z,51
2022-11-16T06:38:13.642Z,50.5
2022-11-16T06:43:19.739Z,50.5
2022-11-16T06:48:25.824Z,50
2022-11-16T06:53:31.927Z,50
2022-11-16T06:58:37.029Z,49.5
2022-11-16T07:03:43.111Z,49.5
2022-11-16T07:08:49.209Z,49.5
2022-11-16T07:13:55.295Z,48
2022-11-16T07:19:01.392Z,48
2022-11-16T07:24:07.474Z,47
2022-11-16T07:29:13.568Z,47
2022-11-16T07:34:19.681Z,46.5
2022-11-16T07:39:25.758Z,46.5
2022-11-16T07:44:31.842Z,46
2022-11-16T07:49:37.921Z,46.5
2022-11-16T07:54:44.021Z,46.5
2022-11-16T07:59:50.115Z,46.5
2022-11-16T08:04:56.200Z,46.5
2022-11-16T08:10:02.287Z,46
2022-11-16T08:15:08.391Z,46
2022-11-16T08:20:14.475Z,46.5
2022-11-16T08:25:20.571Z,46.5
2022-11-16T08:30:26.648Z,46.5
2022-11-16T08:35:32.746Z,46.5
2022-11-16T08:40:38.836Z,46.5
2022-11-16T08:45:44.934Z,46.5
2022-11-16T08:50:51.027Z,47.5
2022-11-16T08:55:56.143Z,47
2022-11-16T09:01:02.272Z,46.5
2022-11-16T09:06:08.320Z,46.5
2022-11-16T09:11:13.433Z,46.5
2022-11-16T09:16:19.509Z,46
2022-11-16T09:21:25.611Z,46
2022-11-16T09:26:31.693Z,46
2022-11-16T09:31:37.787Z,46
2022-11-16T09:36:42.911Z,46
2022-11-16T09:41:49.056Z,46
2022-11-16T09:46:55.089Z,46
2022-11-16T09:52:01.198Z,46
2022-11-16T09:57:06.291Z,45.5
2022-11-16T10:02:12.429Z,45.5
2022-11-16T10:07:18.488Z,45.5
2022-11-16T10:12:24.589Z,45.5
2022-11-16T10:17:30.644Z,45
2022-11-16T10:22:36.741Z,44.5
2022-11-16T10:27:42.830Z,44.5
2022-11-16T10:32:48.945Z,44.5
2022-11-16T10:37:55.009Z,44
2022-11-16T10:43:01.105Z,44
2022-11-16T10:48:07.193Z,44
2022-11-16T10:53:13.276Z,44.5
2022-11-16T10:58:19.378Z,44
2022-11-16T11:03:25.461Z,44
2022-11-16T11:08:31.555Z,44
2022-11-16T11:13:37.647Z,44
2022-11-16T11:18:43.748Z,43.5
2022-11-16T11:23:49.831Z,43.5
2022-11-16T11:28:55.924Z,43
2022-11-16T11:34:02.011Z,43
2022-11-16T11:39:08.096Z,43
2022-11-16T11:44:14.205Z,42.5
2022-11-16T11:49:20.279Z,42.5
2022-11-16T11:54:26.375Z,42.5
2022-11-16T11:59:32.462Z,42.5
2022-11-16T12:04:38.551Z,42.5
2022-11-16T12:09:44.638Z,42.5
2022-11-16T12:14:50.735Z,42.5
2022-11-16T12:19:56.825Z,42.5
2022-11-16T12:25:02.919Z,42.5
2022-11-16T12:30:09.017Z,42.5
2022-11-16T12:35:15.102Z,42.5
2022-11-16T12:40:21.188Z,42.5
2022-11-16T12:45:27.295Z,42.5
2022-11-16T12:50:33.364Z,42
2022-11-16T12:55:39.472Z,42
2022-11-16T13:00:45.547Z,42
2022-11-16T13:05:51.713Z,42
2022-11-16T13:10:57.852Z,42
2022-11-16T13:16:04.008Z,42
2022-11-16T13:21:10.168Z,42
2022-11-16T13:26:16.388Z,42
2022-11-16T13:31:22.484Z,42
2022-11-16T13:36:28.639Z,42
2022-11-16T13:41:34.780Z,42
2022-11-16T13:46:40.932Z,41.5
2022-11-16T13:51:47.077Z,41.5
2022-11-16T13:56:53.287Z,41.5
2022-11-16T14:01:59.385Z,41.5
2022-11-16T14:07:05.553Z,41.5
2022-11-16T14:12:11.815Z,41.5
2022-11-16T14:17:18.070Z,41.5
2022-11-16T14:22:24.333Z,41
2022-11-16T14:27:30.601Z,41
2022-11-16T14:32:36.931Z,41
2022-11-16T14:37:43.135Z,41
2022-11-16T14:42:49.420Z,41
2022-11-16T14:47:55.659Z,41
2022-11-16T14:53:01.935Z,41.5
2022-11-16T14:58:08.195Z,41.5
2022-11-16T15:03:14.470Z,41.5
2022-11-16T15:08:20.730Z,42
2022-11-16T15:13:26.989Z,42
2022-11-16T15:18:33.550Z,42.5
2022-11-16T15:23:39.936Z,42.5
2022-11-16T15:28:46.409Z,42.5
2022-11-16T15:33:52.902Z,43
2022-11-16T15:38:59.356Z,43
2022-11-16T15:44:05.830Z,43
2022-11-16T15:49:12.296Z,43
2022-11-16T15:54:18.775Z,43
2022-11-16T15:59:25.265Z,43
2022-11-16T16:04:31.747Z,43
2022-11-16T16:09:38.199Z,43.5
2022-11-16T16:14:44.696Z,43.5
2022-11-16T16:19:51.126Z,43.5
2022-11-16T16:24:58.215Z,43.5
2022-11-16T16:30:05.156Z,43.5
2022-11-16T16:35:12.238Z,43.5
2022-11-16T16:40:19.164Z,43.5
2022-11-16T16:45:26.168Z,43.5
2022-11-16T16:50:33.174Z,43.5
2022-11-16T16:55:40.175Z,43.5
2022-11-16T17:00:47.200Z,44
2022-11-16T17:05:54.247Z,44
2022-11-16T17:11:01.194Z,44
2022-11-16T17:16:08.204Z,44
2022-11-16T17:21:15.205Z,44
2022-11-16T17:26:22.222Z,44
2022-11-16T17:31:30.096Z,44
2022-11-16T17:36:37.894Z,44
2022-11-16T17:41:45.732Z,44
2022-11-16T17:46:53.561Z,44
2022-11-16T17:52:01.378Z,44
2022-11-16T17:57:09.220Z,44
2022-11-16T18:02:17.047Z,44
2022-11-16T18:07:24.866Z,44
2022-11-16T18:12:31.332Z,44.5
2022-11-16T18:17:37.472Z,44.5
2022-11-16T18:22:43.630Z,44.5
2022-11-16T18:27:49.783Z,44.5
2022-11-16T18:32:55.931Z,44.5
2022-11-16T18:38:02.089Z,44.5
2022-11-16T18:43:08.234Z,44.5
2022-11-16T18:48:14.393Z,44.5
2022-11-16T18:53:20.642Z,44.5
2022-11-16T18:58:26.693Z,44.5
2022-11-16T19:03:32.854Z,44.5
2022-11-16T19:08:39.008Z,44.5
2022-11-16T19:13:45.155Z,44.5
2022-11-16T19:18:51.307Z,44.5
2022-11-16T19:23:57.563Z,44.5
2022-11-16T19:29:03.736Z,44.5
2022-11-16T19:34:09.823Z,44.5
2022-11-16T19:39:15.978Z,45
2022-11-16T19:44:22.061Z,45
2022-11-16T19:49:28.218Z,45
2022-11-16T19:54:34.390Z,45
2022-11-16T19:59:40.521Z,45
2022-11-16T20:04:46.673Z,45
2022-11-16T20:09:52.835Z,45
2022-11-16T20:14:58.980Z,45
2022-11-16T20:20:05.293Z,45
2022-11-16T20:25:11.571Z,45
2022-11-16T20:30:17.796Z,45
2022-11-16T20:35:24.052Z,45
2022-11-16T20:40:30.310Z,45
2022-11-16T20:45:36.586Z,45
2022-11-16T20:50:42.836Z,45
2022-11-16T20:55:49.108Z,45
2022-11-16T21:00:55.449Z,45
2022-11-16T21:06:01.640Z,45
2022-11-16T21:11:07.897Z,45
2022-11-16T21:16:14.176Z,45.5
2022-11-16T21:21:20.462Z,45.5
2022-11-16T21:26:26.912Z,45.5
2022-11-16T21:31:33.385Z,45.5
2022-11-16T21:36:39.853Z,45.5
2022-11-16T21:41:46.332Z,45.5
2022-11-16T21:46:52.795Z,45.5
2022-11-16T21:51:59.276Z,45.5
2022-11-16T21:57:05.745Z,45.5
2022-11-16T22:02:12.210Z,45.5
2022-11-16T22:07:18.681Z,45.5
2022-11-16T22:12:25.150Z,45.5
2022-11-16T22:17:31.684Z,45.5
2022-11-16T22:22:38.130Z,45.5
2022-11-16T22:27:44.577Z,45.5
2022-11-16T22:32:51.614Z,45.5
2022-11-16T22:37:58.594Z,45.5
2022-11-16T22:43:05.588Z,45.5
2022-11-16T22:48:12.600Z,45.5
2022-11-16T22:53:19.610Z,45.5
2022-11-16T22:58:26.618Z,45.5
2022-11-16T23:03:33.622Z,45.5
2022-11-16T23:08:40.626Z,45.5
2022-11-16T23:13:47.633Z,45.5
2022-11-16T23:18:54.644Z,45.5
2022-11-16T23:24:01.644Z,45.5
2022-11-16T23:29:08.654Z,45.5
2022-11-16T23:34:15.740Z,45.5
2022-11-16T23:39:23.499Z,45.5
2022-11-16T23:44:31.332Z,45.5
2022-11-16T23:49:39.163Z,45.5
2022-11-16T23:54:46.984Z,45.5
